createdAt,value
2023-03-26T00:01:13.932Z,8.68
2023-03-26T00:03:41.189Z,5.07
2023-03-26T00:06:13.150Z,5.80
2023-03-26T00:08:41.663Z,7.93
2023-03-26T00:11:10.732Z,9.27
2023-03-26T00:13:37.552Z,8.95
2023-03-26T00:16:04.683Z,7.30
2023-03-26T00:18:31.577Z,6.05
2023-03-26T00:20:59.539Z,6.85
2023-03-26T00:23:28.153Z,9.43
2023-03-26T00:25:56.048Z,3.10
2023-03-26T00:28:24.014Z,8.93
2023-03-26T00:30:59.085Z,6.22
2023-03-26T00:33:25.706Z,6.97
2023-03-26T00:35:58.881Z,7.10
2023-03-26T00:38:27.424Z,7.47
2023-03-26T00:40:54.872Z,9.07
2023-03-26T00:43:23.733Z,10.05
2023-03-26T00:45:54.182Z,4.28
2023-03-26T00:48:28.933Z,9.57
2023-03-26T00:51:01.345Z,17.27
2023-03-26T00:53:27.977Z,10.30
2023-03-26T00:56:00.091Z,7.72
2023-03-26T00:58:27.316Z,8.88
2023-03-26T01:00:58.508Z,7.38
2023-03-26T01:03:29.252Z,10.50
2023-03-26T01:06:04.694Z,8.00
2023-03-26T01:08:48.142Z,9.50
2023-03-26T01:11:24.208Z,8.15
2023-03-26T01:14:12.944Z,8.02
2023-03-26T01:16:45.041Z,9.60
2023-03-26T01:19:56.057Z,7.70
2023-03-26T01:22:25.480Z,6.63
2023-03-26T01:24:53.739Z,5.28
2023-03-26T01:27:54.499Z,6.90
2023-03-26T01:30:27.311Z,5.15
2023-03-26T01:33:33.912Z,5.10
2023-03-26T01:36:16.670Z,7.70
2023-03-26T01:39:03.261Z,7.35
2023-03-26T01:41:47.060Z,7.78
2023-03-26T01:44:41.387Z,6.78
2023-03-26T01:47:09.642Z,9.32
2023-03-26T01:49:36.312Z,8.30
2023-03-26T01:52:06.055Z,6.03
2023-03-26T01:54:34.026Z,10.38
2023-03-26T01:57:13.125Z,7.03
2023-03-26T02:00:12.137Z,4.28
2023-03-26T02:02:57.785Z,6.22
2023-03-26T02:05:30.794Z,6.50
2023-03-26T02:08:09.684Z,6.55
2023-03-26T02:10:41.338Z,8.32
2023-03-26T02:13:07.983Z,8.07
2023-03-26T02:15:34.641Z,14.27
2023-03-26T02:18:01.849Z,9.95
2023-03-26T02:20:30.109Z,8.73
2023-03-26T02:22:57.634Z,5.93
2023-03-26T02:25:24.602Z,7.30
2023-03-26T02:27:53.168Z,6.57
2023-03-26T02:30:25.708Z,7.75
2023-03-26T02:32:54.051Z,10.90
2023-03-26T02:35:21.916Z,9.32
2023-03-26T02:37:50.720Z,11.48
2023-03-26T02:40:20.967Z,6.53
2023-03-26T02:42:47.996Z,11.80
2023-03-26T02:45:15.334Z,3.25
2023-03-26T02:47:43.298Z,10.35
2023-03-26T02:50:11.826Z,9.18
2023-03-26T02:52:38.481Z,11.50
2023-03-26T02:55:05.313Z,11.05
2023-03-26T02:57:31.893Z,5.72
2023-03-26T02:59:58.494Z,9.63
2023-03-26T03:02:25.672Z,14.05
2023-03-26T03:04:52.296Z,9.25
2023-03-26T03:07:20.322Z,10.38
2023-03-26T03:09:46.892Z,4.55
2023-03-26T03:12:13.492Z,10.02
2023-03-26T03:14:40.709Z,11.43
2023-03-26T03:17:07.472Z,10.90
2023-03-26T03:19:34.081Z,9.43
2023-03-26T03:22:00.681Z,9.32
2023-03-26T03:24:27.316Z,11.77
2023-03-26T03:26:56.661Z,8.32
2023-03-26T03:31:50.512Z,10.48
2023-03-26T03:34:17.123Z,10.95
2023-03-26T03:36:48.549Z,10.27
2023-03-26T03:39:15.768Z,9.63
2023-03-26T03:41:42.357Z,10.65
2023-03-26T03:44:08.967Z,7.60
2023-03-26T03:46:35.941Z,9.90
2023-03-26T03:49:04.310Z,10.45
2023-03-26T03:51:31.165Z,7.67
2023-03-26T03:53:57.806Z,9.55
2023-03-26T03:56:25.985Z,9.80
2023-03-26T03:58:52.684Z,8.70
2023-03-26T04:01:22.679Z,12.48
2023-03-26T04:03:49.372Z,10.10
2023-03-26T04:06:18.649Z,10.75
2023-03-26T04:08:46.289Z,9.60
2023-03-26T04:11:14.322Z,13.88
2023-03-26T04:13:40.984Z,9.90
2023-03-26T04:16:08.755Z,7.82
2023-03-26T04:18:36.601Z,6.22
2023-03-26T04:21:05.143Z,6.78
2023-03-26T04:23:32.106Z,12.18
2023-03-26T04:26:03.965Z,12.65
2023-03-26T04:28:35.437Z,14.38
2023-03-26T04:31:03.751Z,13.65
2023-03-26T04:33:32.702Z,8.83
2023-03-26T04:36:02.731Z,9.60
2023-03-26T04:38:33.402Z,9.70
2023-03-26T04:41:03.360Z,11.50
2023-03-26T04:43:31.445Z,9.20
2023-03-26T04:45:57.963Z,10.55
2023-03-26T04:48:24.782Z,9.15
2023-03-26T04:50:51.380Z,9.07
2023-03-26T04:53:21.037Z,13.30
2023-03-26T04:56:02.737Z,11.00
2023-03-26T04:58:32.978Z,11.23
2023-03-26T05:01:10.429Z,8.98
2023-03-26T05:03:40.609Z,13.55
2023-03-26T05:06:07.483Z,15.90
2023-03-26T05:08:34.090Z,9.50
2023-03-26T05:11:00.856Z,14.15
2023-03-26T05:13:27.420Z,15.13
2023-03-26T05:15:55.559Z,14.23
2023-03-26T05:18:22.101Z,16.25
2023-03-26T05:20:48.789Z,10.25
2023-03-26T05:23:15.462Z,14.55
2023-03-26T05:25:42.041Z,12.77
2023-03-26T05:28:10.415Z,13.73
2023-03-26T05:30:37.005Z,23.07
2023-03-26T05:33:04.292Z,13.82
2023-03-26T05:35:31.173Z,12.23
2023-03-26T05:37:58.094Z,15.23
2023-03-26T05:40:24.674Z,17.30
2023-03-26T05:42:51.296Z,11.98
2023-03-26T05:45:18.004Z,15.63
2023-03-26T05:47:44.582Z,11.55
2023-03-26T05:50:11.518Z,12.35
2023-03-26T05:52:38.263Z,14.95
2023-03-26T05:55:05.312Z,13.43
2023-03-26T05:57:32.437Z,14.63
2023-03-26T05:59:59.065Z,9.82
2023-03-26T06:02:25.753Z,16.90
2023-03-26T06:04:52.451Z,11.02
2023-03-26T06:07:19.764Z,11.63
2023-03-26T06:09:46.627Z,9.48
2023-03-26T06:12:13.830Z,13.60
2023-03-26T06:14:42.737Z,14.10
2023-03-26T06:17:10.134Z,10.73
2023-03-26T06:19:37.239Z,11.88
2023-03-26T06:22:04.588Z,19.13
2023-03-26T06:24:31.714Z,18.42
2023-03-26T06:26:58.262Z,15.45
2023-03-26T06:29:25.826Z,14.80
2023-03-26T06:31:52.472Z,20.48
2023-03-26T06:34:19.137Z,10.38
2023-03-26T06:36:45.825Z,13.82
2023-03-26T06:39:12.376Z,9.27
2023-03-26T06:41:38.910Z,9.10
2023-03-26T06:44:05.494Z,12.82
2023-03-26T06:46:33.008Z,17.10
2023-03-26T06:48:59.632Z,15.43
2023-03-26T06:51:26.211Z,14.82
2023-03-26T06:53:52.837Z,15.50
2023-03-26T06:56:19.323Z,11.93
2023-03-26T06:58:45.850Z,15.60
2023-03-26T07:01:12.476Z,17.45
2023-03-26T07:03:39.184Z,13.10
2023-03-26T07:06:05.993Z,13.25
2023-03-26T07:08:32.617Z,19.05
2023-03-26T07:10:59.197Z,17.15
2023-03-26T07:13:26.205Z,16.98
2023-03-26T07:15:52.749Z,10.13
2023-03-26T07:18:19.355Z,12.15
2023-03-26T07:20:46.364Z,10.85
2023-03-26T07:23:15.435Z,35.90
2023-03-26T07:25:42.282Z,15.63
2023-03-26T07:28:40.926Z,16.88
2023-03-26T07:31:13.339Z,10.98
2023-03-26T07:33:58.634Z,12.88
2023-03-26T07:36:54.160Z,12.70
2023-03-26T07:39:42.720Z,17.63
2023-03-26T07:42:28.427Z,13.27
2023-03-26T07:45:19.864Z,13.43
2023-03-26T07:47:49.269Z,20.77
2023-03-26T07:52:45.824Z,15.40
2023-03-26T07:55:14.403Z,28.23
2023-03-26T07:58:03.944Z,17.40
2023-03-26T08:00:48.493Z,16.52
2023-03-26T08:03:29.400Z,11.93
2023-03-26T08:06:16.765Z,11.88
2023-03-26T08:09:09.320Z,15.43
2023-03-26T08:11:47.851Z,13.82
2023-03-26T08:14:24.489Z,16.15
2023-03-26T08:17:38.443Z,16.58
2023-03-26T08:20:21.875Z,14.18
2023-03-26T08:22:56.617Z,20.83
2023-03-26T08:25:42.183Z,21.17
2023-03-26T08:28:25.627Z,18.25
2023-03-26T08:30:55.004Z,17.45
2023-03-26T08:33:22.633Z,22.88
2023-03-26T08:35:49.459Z,24.27
2023-03-26T08:38:18.521Z,15.35
2023-03-26T08:41:12.402Z,19.92
2023-03-26T08:44:03.932Z,23.13
2023-03-26T08:46:51.982Z,22.85
2023-03-26T08:49:38.594Z,17.80
2023-03-26T08:52:35.439Z,18.50
2023-03-26T08:55:36.396Z,16.45
2023-03-26T08:58:35.127Z,20.05
2023-03-26T09:01:35.744Z,18.65
2023-03-26T09:04:56.486Z,17.25
2023-03-26T09:07:55.745Z,14.30
2023-03-26T09:13:40.382Z,15.57
2023-03-26T09:16:32.566Z,18.97
2023-03-26T09:19:35.455Z,14.05
2023-03-26T09:22:46.162Z,17.80
2023-03-26T09:25:18.276Z,16.80
2023-03-26T09:28:21.973Z,17.08
2023-03-26T09:31:10.505Z,10.02
2023-03-26T09:34:02.467Z,11.18
2023-03-26T09:37:06.756Z,12.40
2023-03-26T09:39:59.728Z,10.55
2023-03-26T09:42:52.397Z,10.32
2023-03-26T09:45:31.532Z,9.70
2023-03-26T09:48:27.437Z,5.95
2023-03-26T09:51:13.034Z,10.80
2023-03-26T09:54:14.883Z,8.27
2023-03-26T09:57:13.031Z,13.32
2023-03-26T09:59:58.320Z,11.02
2023-03-26T10:03:03.792Z,10.35
2023-03-26T10:05:41.303Z,9.55
2023-03-26T10:08:39.776Z,11.55
2023-03-26T10:11:12.219Z,12.43
2023-03-26T10:14:08.497Z,13.68
2023-03-26T10:16:45.989Z,11.65
2023-03-26T10:19:31.166Z,9.77
2023-03-26T10:22:22.914Z,9.18
2023-03-26T10:25:32.990Z,10.55
2023-03-26T10:28:26.238Z,6.43
2023-03-26T10:31:01.602Z,8.10
2023-03-26T10:34:28.212Z,10.52
2023-03-26T10:37:08.768Z,11.38
2023-03-26T10:40:16.626Z,8.55
2023-03-26T10:43:09.017Z,11.88
2023-03-26T10:46:13.952Z,17.58
2023-03-26T10:49:16.840Z,6.18
2023-03-26T10:52:04.859Z,6.40
2023-03-26T10:54:34.371Z,3.88
2023-03-26T10:57:10.315Z,5.85
2023-03-26T10:59:37.203Z,4.88
2023-03-26T11:02:30.723Z,7.55
2023-03-26T11:05:32.298Z,8.65
2023-03-26T11:08:32.821Z,6.63
2023-03-26T11:11:23.591Z,5.50
2023-03-26T11:14:00.575Z,4.05
2023-03-26T11:16:56.309Z,5.38
2023-03-26T11:19:45.499Z,6.60
2023-03-26T11:25:05.458Z,6.90
2023-03-26T11:27:40.981Z,4.90
2023-03-26T11:30:37.602Z,5.53
2023-03-26T11:33:10.512Z,6.20
2023-03-26T11:35:48.193Z,7.90
2023-03-26T11:38:22.984Z,6.00
2023-03-26T11:40:53.898Z,5.18
2023-03-26T11:43:25.969Z,7.05
2023-03-26T11:45:53.709Z,10.57
2023-03-26T11:48:41.832Z,6.93
2023-03-26T11:51:14.318Z,3.70
2023-03-26T11:53:46.812Z,2.97
2023-03-26T11:56:29.239Z,4.35
2023-03-26T11:59:17.886Z,4.10
2023-03-26T12:01:52.667Z,6.72
2023-03-26T12:04:26.329Z,6.43
2023-03-26T12:06:59.661Z,4.47
2023-03-26T12:09:26.553Z,3.80
2023-03-26T12:11:59.623Z,4.22
2023-03-26T12:14:29.091Z,6.07
2023-03-26T12:17:12.081Z,5.00
2023-03-26T12:19:44.357Z,4.93
2023-03-26T12:22:36.443Z,8.57
2023-03-26T12:25:21.225Z,5.93
2023-03-26T12:27:58.953Z,5.22
2023-03-26T12:30:33.644Z,3.53
2023-03-26T12:33:04.207Z,5.97
2023-03-26T12:35:34.151Z,7.82
2023-03-26T12:38:19.175Z,6.35
2023-03-26T12:40:47.320Z,3.10
2023-03-26T12:44:46.260Z,5.68
2023-03-26T12:47:57.688Z,2.38
2023-03-26T12:49:16.117Z,5.28
2023-03-26T12:51:53.247Z,3.83
2023-03-26T12:54:49.365Z,5.43
2023-03-26T12:57:35.490Z,2.92
2023-03-26T13:00:22.772Z,58.38
2023-03-26T13:02:54.427Z,2.65
2023-03-26T13:06:00.389Z,3.67
2023-03-26T13:08:30.017Z,3.33
2023-03-26T13:11:26.633Z,2.92
2023-03-26T13:14:11.707Z,2.40
2023-03-26T13:16:55.422Z,5.72
2023-03-26T13:19:43.841Z,3.58
2023-03-26T13:22:17.797Z,5.07
2023-03-26T13:25:22.558Z,2.97
2023-03-26T13:28:34.324Z,2.42
2023-03-26T13:31:27.705Z,2.60
2023-03-26T13:34:22.495Z,2.53
2023-03-26T13:37:06.884Z,5.18
2023-03-26T13:40:00.896Z,3.75
2023-03-26T13:42:40.074Z,2.03
2023-03-26T13:47:56.299Z,2.08
2023-03-26T13:50:37.365Z,2.58
2023-03-26T13:53:20.731Z,3.17
2023-03-26T13:55:56.736Z,5.85
2023-03-26T13:58:50.466Z,3.72
2023-03-26T14:01:40.890Z,7.03
2023-03-26T14:04:23.511Z,3.28
2023-03-26T14:06:57.377Z,2.50
2023-03-26T14:09:38.539Z,1.33
2023-03-26T14:12:21.606Z,1.40
2023-03-26T14:14:55.184Z,1.52
2023-03-26T14:17:32.773Z,1.60
2023-03-26T14:20:19.901Z,1.52
2023-03-26T14:22:58.108Z,2.00
2023-03-26T14:25:39.793Z,2.87
2023-03-26T14:28:16.187Z,5.03
2023-03-26T14:30:58.394Z,2.40
2023-03-26T14:33:49.647Z,2.53
2023-03-26T14:36:22.456Z,5.35
2023-03-26T14:39:01.986Z,4.97
2023-03-26T14:41:50.652Z,3.70
2023-03-26T14:44:48.446Z,1.48
2023-03-26T14:47:21.457Z,1.08
2023-03-26T14:50:27.733Z,2.10
2023-03-26T14:53:01.349Z,3.45
2023-03-26T14:56:11.711Z,4.35
2023-03-26T14:58:55.713Z,3.28
2023-03-26T15:01:26.618Z,15.85
2023-03-26T15:04:30.241Z,3.50
2023-03-26T15:07:08.873Z,3.15
2023-03-26T15:10:11.227Z,2.75
2023-03-26T15:13:15.828Z,3.67
2023-03-26T15:16:01.359Z,2.53
2023-03-26T15:18:49.671Z,4.28
2023-03-26T15:21:39.583Z,3.20
2023-03-26T15:24:37.037Z,4.05
2023-03-26T15:27:28.094Z,2.83
2023-03-26T15:30:13.394Z,6.82
2023-03-26T15:33:18.421Z,2.78
2023-03-26T15:36:26.208Z,4.28
2023-03-26T15:39:21.301Z,8.07
2023-03-26T15:42:08.180Z,3.47
2023-03-26T15:45:05.901Z,4.47
2023-03-26T15:47:46.600Z,4.75
2023-03-26T15:50:31.033Z,1.75
2023-03-26T15:53:23.622Z,1.75
2023-03-26T15:56:18.730Z,1.50
2023-03-26T15:59:08.886Z,1.98
2023-03-26T16:02:04.828Z,4.03
2023-03-26T16:04:41.583Z,2.20
2023-03-26T16:07:58.724Z,0.40
2023-03-26T16:10:33.701Z,0.75
2023-03-26T16:13:20.018Z,1.10
2023-03-26T16:15:55.892Z,2.25
2023-03-26T16:18:35.700Z,1.40
2023-03-26T16:21:32.082Z,0.57
2023-03-26T16:24:01.972Z,4.32
2023-03-26T16:31:37.846Z,1.52
2023-03-26T16:34:07.022Z,1.08
2023-03-26T16:36:36.585Z,0.70
2023-03-26T16:39:06.088Z,4.93
2023-03-26T16:41:34.138Z,2.35
2023-03-26T16:44:13.752Z,1.30
2023-03-26T16:47:07.564Z,1.23
2023-03-26T16:50:12.231Z,3.53
2023-03-26T16:53:15.425Z,3.35
2023-03-26T16:55:56.393Z,6.32
2023-03-26T16:58:37.743Z,35.10
2023-03-26T17:01:43.507Z,5.43
2023-03-26T17:04:17.218Z,19.25
2023-03-26T17:06:46.891Z,6.18
2023-03-26T17:09:18.127Z,3.88
2023-03-26T17:11:56.368Z,4.63
2023-03-26T17:14:51.264Z,7.38
2023-03-26T17:17:20.993Z,4.57
2023-03-26T17:20:08.909Z,3.30
2023-03-26T17:22:41.992Z,2.60
2023-03-26T17:25:33.351Z,1.60
2023-03-26T17:28:36.605Z,1.08
2023-03-26T17:31:19.938Z,2.10
2023-03-26T17:33:47.789Z,1.30
2023-03-26T17:36:28.377Z,2.47
2023-03-26T17:39:00.325Z,4.05
2023-03-26T17:41:50.893Z,2.63
2023-03-26T17:44:39.810Z,2.95
2023-03-26T17:47:33.157Z,3.13
2023-03-26T17:50:14.771Z,5.60
2023-03-26T17:52:55.306Z,6.60
2023-03-26T17:55:31.121Z,6.10
2023-03-26T17:58:00.954Z,4.88
2023-03-26T18:00:36.733Z,3.03
2023-03-26T18:03:10.863Z,3.78
2023-03-26T18:05:38.976Z,4.45
2023-03-26T18:08:32.111Z,5.22
2023-03-26T18:11:05.358Z,7.43
2023-03-26T18:13:59.769Z,5.43
2023-03-26T18:16:42.359Z,4.53
2023-03-26T18:19:18.985Z,3.55
2023-03-26T18:21:57.434Z,4.47
2023-03-26T18:24:31.354Z,3.77
2023-03-26T18:27:02.639Z,5.05
2023-03-26T18:29:35.119Z,1.10
2023-03-26T18:32:09.581Z,1.95
2023-03-26T18:34:39.780Z,1.15
2023-03-26T18:37:22.385Z,4.25
2023-03-26T18:40:12.670Z,3.20
2023-03-26T18:42:41.662Z,3.38
2023-03-26T18:45:30.814Z,2.63
2023-03-26T18:48:03.914Z,2.55
2023-03-26T18:50:36.590Z,4.22
2023-03-26T18:53:14.017Z,1.83
2023-03-26T18:55:41.050Z,3.30
2023-03-26T18:58:25.054Z,3.97
2023-03-26T19:01:23.729Z,2.03
2023-03-26T19:03:53.574Z,2.58
2023-03-26T19:06:20.861Z,5.22
2023-03-26T19:08:48.271Z,4.75
2023-03-26T19:11:17.283Z,7.20
2023-03-26T19:13:46.162Z,2.42
2023-03-26T19:16:22.147Z,4.78
2023-03-26T19:18:49.294Z,3.05
2023-03-26T19:21:17.917Z,2.33
2023-03-26T19:23:46.705Z,3.45
2023-03-26T19:26:13.785Z,2.33
2023-03-26T19:28:48.822Z,2.33
2023-03-26T19:31:15.359Z,2.03
2023-03-26T19:33:44.136Z,3.17
2023-03-26T19:36:14.393Z,3.97
2023-03-26T19:38:47.971Z,2.28
2023-03-26T19:41:36.250Z,4.47
2023-03-26T19:44:16.222Z,2.60
2023-03-26T19:46:52.805Z,2.03
2023-03-26T19:49:31.559Z,2.08
2023-03-26T19:52:25.753Z,6.05
2023-03-26T19:55:10.118Z,4.50
2023-03-26T19:57:37.802Z,3.83
2023-03-26T20:00:13.299Z,2.10
2023-03-26T20:02:41.044Z,2.55
2023-03-26T20:05:18.629Z,3.15
2023-03-26T20:07:45.158Z,18.25
2023-03-26T20:10:12.492Z,8.15
2023-03-26T20:12:39.162Z,5.00
2023-03-26T20:15:22.362Z,1.98
2023-03-26T20:17:55.667Z,3.00
2023-03-26T20:20:27.417Z,3.05
2023-03-26T20:22:54.328Z,4.07
2023-03-26T20:25:25.160Z,2.67
2023-03-26T20:27:55.128Z,3.40
2023-03-26T20:30:37.012Z,2.72
2023-03-26T20:33:12.649Z,5.18
2023-03-26T20:35:40.465Z,4.38
2023-03-26T20:38:09.303Z,2.88
2023-03-26T20:40:35.917Z,4.82
2023-03-26T20:43:02.445Z,2.58
2023-03-26T20:45:29.036Z,1.50
2023-03-26T20:47:55.713Z,1.30
2023-03-26T20:50:23.147Z,2.22
2023-03-26T20:52:50.225Z,0.80
2023-03-26T20:55:22.026Z,2.58
2023-03-26T20:57:49.354Z,1.20
2023-03-26T21:00:19.215Z,1.67
2023-03-26T21:02:47.226Z,0.95
2023-03-26T21:05:21.901Z,1.38
2023-03-26T21:07:48.991Z,0.93
2023-03-26T21:10:17.304Z,2.83
2023-03-26T21:13:05.716Z,0.80
2023-03-26T21:15:32.740Z,0.65
2023-03-26T21:17:59.636Z,1.00
2023-03-26T21:20:29.558Z,0.70
2023-03-26T21:23:21.532Z,0.82
2023-03-26T21:26:01.371Z,0.70
2023-03-26T21:28:41.293Z,0.88
2023-03-26T21:31:14.522Z,0.90
2023-03-26T21:33:41.201Z,1.17
2023-03-26T21:36:08.322Z,2.80
2023-03-26T21:38:35.777Z,2.97
2023-03-26T21:41:03.331Z,4.20
2023-03-26T21:43:30.406Z,1.92
2023-03-26T21:45:58.245Z,1.42
2023-03-26T21:48:25.074Z,25.40
2023-03-26T21:50:51.927Z,2.30
2023-03-26T21:53:18.669Z,1.30
2023-03-26T21:55:57.289Z,2.28
2023-03-26T21:58:41.630Z,0.88
2023-03-26T22:01:31.574Z,2.08
2023-03-26T22:04:12.125Z,1.90
2023-03-26T22:06:46.090Z,4.40
2023-03-26T22:09:15.013Z,2.78
2023-03-26T22:11:43.230Z,2.58
2023-03-26T22:14:11.885Z,2.47
2023-03-26T22:16:38.652Z,7.45
2023-03-26T22:19:07.281Z,2.38
2023-03-26T22:21:33.949Z,3.50
2023-03-26T22:24:04.059Z,4.18
2023-03-26T22:26:31.253Z,3.58
2023-03-26T22:28:58.213Z,2.65
2023-03-26T22:31:26.356Z,5.00
2023-03-26T22:33:54.218Z,3.47
2023-03-26T22:36:23.459Z,2.97
2023-03-26T22:38:53.578Z,3.42
2023-03-26T22:41:21.504Z,4.20
2023-03-26T22:43:48.105Z,2.40
2023-03-26T22:46:15.150Z,2.35
2023-03-26T22:48:41.653Z,3.10
2023-03-26T22:51:10.179Z,5.18
2023-03-26T22:53:37.066Z,4.03
2023-03-26T22:56:04.573Z,7.07
2023-03-26T22:58:32.780Z,3.67
2023-03-26T23:01:09.135Z,4.82
2023-03-26T23:03:37.052Z,3.95
2023-03-26T23:06:07.225Z,4.15
2023-03-26T23:08:35.066Z,7.70
2023-03-26T23:11:02.180Z,3.15
2023-03-26T23:13:28.721Z,2.17
2023-03-26T23:15:56.837Z,5.13
2023-03-26T23:18:24.355Z,2.72
2023-03-26T23:20:52.749Z,2.72
2023-03-26T23:23:21.556Z,1.90
2023-03-26T23:25:48.104Z,3.13
2023-03-26T23:28:14.623Z,4.20
2023-03-26T23:30:43.981Z,3.67
2023-03-26T23:35:38.001Z,7.03
2023-03-26T23:38:08.143Z,6.50
2023-03-26T23:40:34.676Z,6.10
2023-03-26T23:43:01.164Z,7.95
2023-03-26T23:45:27.739Z,8.40
2023-03-26T23:47:54.326Z,7.03
2023-03-26T23:50:20.979Z,8.07
2023-03-26T23:52:47.492Z,7.93
2023-03-26T23:55:14.044Z,6.68
2023-03-26T23:57:40.520Z,7.07
